sensor_id;sensor_type;location;lat;lon;timestamp;pressure;altitude;pressure_sealevel;temperature;humidity
7832;BME280;3961;42.058;25.586;2022-12-18T00:01:06;63352.88;;;10.11;100.00
7832;BME280;3961;42.058;25.586;2022-12-18T00:03:38;63365.03;;;10.22;100.00
7832;BME280;3961;42.058;25.586;2022-12-18T00:06:04;63349.66;;;10.11;100.00
7832;BME280;3961;42.058;25.586;2022-12-18T00:08:30;63360.66;;;10.21;100.00
7832;BME280;3961;42.058;25.586;2022-12-18T00:10:55;63359.50;;;10.20;100.00
7832;BME280;3961;42.058;25.586;2022-12-18T00:13:21;63348.16;;;10.12;100.00
7832;BME280;3961;42.058;25.586;2022-12-18T00:15:46;63354.50;;;10.18;100.00
7832;BME280;3961;42.058;25.586;2022-12-18T00:18:11;63365.28;;;10.25;100.00
7832;BME280;3961;42.058;25.586;2022-12-18T00:20:38;63365.84;;;10.25;100.00
7832;BME280;3961;42.058;25.586;2022-12-18T00:23:06;63358.91;;;10.19;100.00
7832;BME280;3961;42.058;25.586;2022-12-18T00:25:35;63377.41;;;10.35;100.00
7832;BME280;3961;42.058;25.586;2022-12-18T00:28:04;63373.13;;;10.29;100.00
7832;BME280;3961;42.058;25.586;2022-12-18T00:30:30;63367.59;;;10.27;100.00
7832;BME280;3961;42.058;25.586;2022-12-18T00:32:56;63372.78;;;10.31;100.00
7832;BME280;3961;42.058;25.586;2022-12-18T00:35:22;63368.75;;;10.28;100.00
7832;BME280;3961;42.058;25.586;2022-12-18T00:37:47;63369.91;;;10.29;100.00
7832;BME280;3961;42.058;25.586;2022-12-18T00:40:13;63361.22;;;10.21;100.00
7832;BME280;3961;42.058;25.586;2022-12-18T00:42:38;63339.63;;;10.00;100.00
7832;BME280;3961;42.058;25.586;2022-12-18T00:45:26;63351.97;;;10.13;100.00
7832;BME280;3961;42.058;25.586;2022-12-18T00:47:52;63337.22;;;10.02;100.00
7832;BME280;3961;42.058;25.586;2022-12-18T00:50:18;63345.06;;;10.07;100.00
7832;BME280;3961;42.058;25.586;2022-12-18T00:52:44;63366.19;;;10.23;100.00
7832;BME280;3961;42.058;25.586;2022-12-18T00:55:10;63358.66;;;10.17;100.00
7832;BME280;3961;42.058;25.586;2022-12-18T00:57:36;63362.97;;;10.23;100.00
7832;BME280;3961;42.058;25.586;2022-12-18T01:00:02;63367.81;;;10.29;100.00
7832;BME280;3961;42.058;25.586;2022-12-18T01:02:28;63374.50;;;10.33;100.00
7832;BME280;3961;42.058;25.586;2022-12-18T01:04:53;63373.34;;;10.32;100.00
7832;BME280;3961;42.058;25.586;2022-12-18T01:07:19;63377.97;;;10.36;100.00
7832;BME280;3961;42.058;25.586;2022-12-18T01:09:44;63389.03;;;10.41;100.00
7832;BME280;3961;42.058;25.586;2022-12-18T01:12:10;63391.00;;;10.45;100.00
7832;BME280;3961;42.058;25.586;2022-12-18T01:14:37;63383.53;;;10.38;100.00
7832;BME280;3961;42.058;25.586;2022-12-18T01:17:03;63373.94;;;10.32;100.00
7832;BME280;3961;42.058;25.586;2022-12-18T01:19:29;63382.03;;;10.39;100.00
7832;BME280;3961;42.058;25.586;2022-12-18T01:21:55;63381.78;;;10.37;100.00
7832;BME280;3961;42.058;25.586;2022-12-18T01:24:20;63377.97;;;10.36;100.00
7832;BME280;3961;42.058;25.586;2022-12-18T01:26:46;63389.50;;;10.46;100.00
7832;BME280;3961;42.058;25.586;2022-12-18T01:29:11;63388.34;;;10.45;100.00
7832;BME280;3961;42.058;25.586;2022-12-18T01:31:37;63386.63;;;10.43;100.00
7832;BME280;3961;42.058;25.586;2022-12-18T01:34:05;63379.47;;;10.35;100.00
7832;BME280;3961;42.058;25.586;2022-12-18T01:36:33;63372.78;;;10.31;100.00
7832;BME280;3961;42.058;25.586;2022-12-18T01:39:00;63380.28;;;10.38;100.00
7832;BME280;3961;42.058;25.586;2022-12-18T01:41:27;63344.47;;;10.06;100.00
7832;BME280;3961;42.058;25.586;2022-12-18T01:47:38;63380.06;;;10.35;100.00
7832;BME280;3961;42.058;25.586;2022-12-18T01:50:11;63371.28;;;10.32;100.00
7832;BME280;3961;42.058;25.586;2022-12-18T01:52:38;63377.41;;;10.35;100.00
7832;BME280;3961;42.058;25.586;2022-12-18T01:55:07;63373.34;;;10.32;100.00
7832;BME280;3961;42.058;25.586;2022-12-18T01:57:34;63389.84;;;10.44;100.00
7832;BME280;3961;42.058;25.586;2022-12-18T02:00:07;63377.16;;;10.33;100.00
7832;BME280;3961;42.058;25.586;2022-12-18T02:02:33;63379.47;;;10.35;100.00
7832;BME280;3961;42.058;25.586;2022-12-18T02:05:00;63313.78;;;9.84;100.00
7832;BME280;3961;42.058;25.586;2022-12-18T02:10:10;63339.53;;;10.04;100.00
7832;BME280;3961;42.058;25.586;2022-12-18T02:12:46;63347.00;;;10.11;100.00
7832;BME280;3961;42.058;25.586;2022-12-18T02:15:27;63354.97;;;10.11;100.00
7832;BME280;3961;42.058;25.586;2022-12-18T02:18:05;63360.97;;;10.19;100.00
7832;BME280;3961;42.058;25.586;2022-12-18T02:26:17;63374.50;;;10.33;100.00
7832;BME280;3961;42.058;25.586;2022-12-18T02:28:54;63380.88;;;10.38;100.00
7832;BME280;3961;42.058;25.586;2022-12-18T02:31:24;63393.22;;;10.52;100.00
7832;BME280;3961;42.058;25.586;2022-12-18T02:33:53;63395.28;;;10.51;100.00
7832;BME280;3961;42.058;25.586;2022-12-18T02:36:24;63387.69;;;10.49;100.00
7832;BME280;3961;42.058;25.586;2022-12-18T02:38:52;63396.44;;;10.52;100.00
7832;BME280;3961;42.058;25.586;2022-12-18T02:41:18;63397.84;;;10.56;100.00
7832;BME280;3961;42.058;25.586;2022-12-18T02:43:53;63401.41;;;10.54;100.00
7832;BME280;3961;42.058;25.586;2022-12-18T02:48:51;63409.97;;;10.66;100.00
7832;BME280;3961;42.058;25.586;2022-12-18T02:51:23;63427.97;;;10.77;100.00
7832;BME280;3961;42.058;25.586;2022-12-18T02:54:11;63410.88;;;10.65;100.00
7832;BME280;3961;42.058;25.586;2022-12-18T02:56:49;63414.94;;;10.68;100.00
7832;BME280;3961;42.058;25.586;2022-12-18T02:59:29;63418.75;;;10.69;100.00
7832;BME280;3961;42.058;25.586;2022-12-18T03:02:16;63416.66;;;10.70;100.00
7832;BME280;3961;42.058;25.586;2022-12-18T03:04:48;63420.13;;;10.73;100.00
7832;BME280;3961;42.058;25.586;2022-12-18T03:07:21;63417.25;;;10.70;100.00
7832;BME280;3961;42.058;25.586;2022-12-18T03:09:52;63427.63;;;10.80;100.00
7832;BME280;3961;42.058;25.586;2022-12-18T03:12:30;63441.50;;;10.92;100.00
7832;BME280;3961;42.058;25.586;2022-12-18T03:17:42;63447.63;;;10.95;100.00
7832;BME280;3961;42.058;25.586;2022-12-18T03:20:15;63455.72;;;11.02;100.00
7832;BME280;3961;42.058;25.586;2022-12-18T03:22:45;63424.75;;;10.77;100.00
7832;BME280;3961;42.058;25.586;2022-12-18T03:25:13;63420.34;;;10.75;100.00
7832;BME280;3961;42.058;25.586;2022-12-18T03:27:44;63430.28;;;10.80;100.00
7832;BME280;3961;42.058;25.586;2022-12-18T03:30:12;63432.59;;;10.82;100.00
7832;BME280;3961;42.058;25.586;2022-12-18T03:33:26;63420.59;;;10.78;100.00
7832;BME280;3961;42.058;25.586;2022-12-18T03:35:31;63426.00;;;10.73;100.00
7832;BME280;3961;42.058;25.586;2022-12-18T03:37:59;63427.63;;;10.80;100.00
7832;BME280;3961;42.058;25.586;2022-12-18T03:43:36;63424.75;;;10.77;100.00
7832;BME280;3961;42.058;25.586;2022-12-18T03:46:15;63412.28;;;10.68;100.00
7832;BME280;3961;42.058;25.586;2022-12-18T03:48:45;63427.28;;;10.82;100.00
7832;BME280;3961;42.058;25.586;2022-12-18T03:51:22;63424.41;;;10.79;100.00
7832;BME280;3961;42.058;25.586;2022-12-18T03:53:57;63415.75;;;10.71;100.00
7832;BME280;3961;42.058;25.586;2022-12-18T03:56:25;63425.66;;;10.75;100.00
7832;BME280;3961;42.058;25.586;2022-12-18T03:58:53;63435.72;;;10.87;100.00
7832;BME280;3961;42.058;25.586;2022-12-18T04:01:23;63425.66;;;10.75;100.00
7832;BME280;3961;42.058;25.586;2022-12-18T04:03:52;63435.13;;;10.86;100.00
7832;BME280;3961;42.058;25.586;2022-12-18T04:06:18;63439.53;;;10.88;100.00
7832;BME280;3961;42.058;25.586;2022-12-18T04:08:45;63430.84;;;10.80;100.00
7832;BME280;3961;42.058;25.586;2022-12-18T04:11:11;63430.63;;;10.77;100.00
7832;BME280;3961;42.058;25.586;2022-12-18T04:13:37;63439.53;;;10.88;100.00
7832;BME280;3961;42.058;25.586;2022-12-18T04:16:04;63438.38;;;10.87;100.00
7832;BME280;3961;42.058;25.586;2022-12-18T04:18:30;63428.31;;;10.75;100.00
7832;BME280;3961;42.058;25.586;2022-12-18T04:20:55;63408.59;;;10.63;100.00
7832;BME280;3961;42.058;25.586;2022-12-18T04:23:21;63413.78;;;10.67;100.00
7832;BME280;3961;42.058;25.586;2022-12-18T04:25:47;63421.06;;;10.71;100.00
7832;BME280;3961;42.058;25.586;2022-12-18T04:28:12;63414.94;;;10.68;100.00
7832;BME280;3961;42.058;25.586;2022-12-18T04:30:38;63419.91;;;10.70;100.00
7832;BME280;3961;42.058;25.586;2022-12-18T04:33:03;63418.03;;;10.73;100.00
7832;BME280;3961;42.058;25.586;2022-12-18T04:35:29;63418.97;;;10.72;100.00
7832;BME280;3961;42.058;25.586;2022-12-18T04:37:55;63422.19;;;10.72;100.00
7832;BME280;3961;42.058;25.586;2022-12-18T04:40:20;63429.94;;;10.82;100.00
7832;BME280;3961;42.058;25.586;2022-12-18T04:42:46;63424.75;;;10.77;100.00
7832;BME280;3961;42.058;25.586;2022-12-18T04:45:12;63427.63;;;10.80;100.00
7832;BME280;3961;42.058;25.586;2022-12-18T04:47:37;63412.03;;;10.66;100.00
7832;BME280;3961;42.058;25.586;2022-12-18T04:50:03;63431.44;;;10.81;100.00
7832;BME280;3961;42.058;25.586;2022-12-18T04:52:29;63432.81;;;10.84;100.00
7832;BME280;3961;42.058;25.586;2022-12-18T04:54:54;63444.16;;;10.92;100.00
7832;BME280;3961;42.058;25.586;2022-12-18T04:57:19;63454.56;;;11.01;100.00
7832;BME280;3961;42.058;25.586;2022-12-18T04:59:45;63451.66;;;10.98;100.00
7832;BME280;3961;42.058;25.586;2022-12-18T05:02:11;63454.44;;;11.05;100.00
7832;BME280;3961;42.058;25.586;2022-12-18T05:04:36;63459.75;;;11.05;100.00
7832;BME280;3961;42.058;25.586;2022-12-18T05:07:02;63466.91;;;11.14;100.00
7832;BME280;3961;42.058;25.586;2022-12-18T05:09:27;63445.44;;;11.00;100.00
7832;BME280;3961;42.058;25.586;2022-12-18T05:11:53;63455.94;;;11.04;100.00
7832;BME280;3961;42.058;25.586;2022-12-18T05:14:19;63465.19;;;11.13;100.00
7832;BME280;3961;42.058;25.586;2022-12-18T05:16:44;63466.91;;;11.14;100.00
7832;BME280;3961;42.058;25.586;2022-12-18T05:19:10;63456.50;;;11.05;100.00
7832;BME280;3961;42.058;25.586;2022-12-18T05:21:35;63461.13;;;11.09;100.00
7832;BME280;3961;42.058;25.586;2022-12-18T05:24:01;63457.91;;;11.08;100.00
7832;BME280;3961;42.058;25.586;2022-12-18T05:26:26;63468.41;;;11.13;100.00
7832;BME280;3961;42.058;25.586;2022-12-18T05:28:51;63457.09;;;11.05;100.00
7832;BME280;3961;42.058;25.586;2022-12-18T05:31:17;63464.59;;;11.12;100.00
7832;BME280;3961;42.058;25.586;2022-12-18T05:33:42;63451.91;;;11.01;100.00
7832;BME280;3961;42.058;25.586;2022-12-18T05:36:08;63440.25;;;10.95;100.00
7832;BME280;3961;42.058;25.586;2022-12-18T05:38:36;63445.88;;;10.93;100.00
7832;BME280;3961;42.058;25.586;2022-12-18T05:41:03;63447.84;;;10.97;100.00
7832;BME280;3961;42.058;25.586;2022-12-18T05:43:29;63451.09;;;10.98;100.00
7832;BME280;3961;42.058;25.586;2022-12-18T05:45:55;63453.97;;;11.00;100.00
7832;BME280;3961;42.058;25.586;2022-12-18T05:48:21;63452.25;;;10.99;100.00
7832;BME280;3961;42.058;25.586;2022-12-18T05:50:48;63436.53;;;10.90;100.00
7832;BME280;3961;42.058;25.586;2022-12-18T05:53:16;63447.28;;;10.97;100.00
7832;BME280;3961;42.058;25.586;2022-12-18T05:55:43;63439.41;;;10.92;100.00
7832;BME280;3961;42.058;25.586;2022-12-18T05:58:10;63466.09;;;11.11;100.00
7832;BME280;3961;42.058;25.586;2022-12-18T06:00:38;63463.22;;;11.08;100.00
7832;BME280;3961;42.058;25.586;2022-12-18T06:03:09;63465.53;;;11.10;100.00
7832;BME280;3961;42.058;25.586;2022-12-18T06:05:44;63460.91;;;11.06;100.00
7832;BME280;3961;42.058;25.586;2022-12-18T06:08:11;63474.44;;;11.21;100.00
7832;BME280;3961;42.058;25.586;2022-12-18T06:10:37;63468.66;;;11.16;100.00
7832;BME280;3961;42.058;25.586;2022-12-18T06:13:04;63472.47;;;11.17;100.00
7832;BME280;3961;42.058;25.586;2022-12-18T06:15:29;63456.88;;;11.03;100.00
7832;BME280;3961;42.058;25.586;2022-12-18T06:17:55;63459.75;;;11.05;100.00
7832;BME280;3961;42.058;25.586;2022-12-18T06:20:20;63442.66;;;10.93;100.00
7832;BME280;3961;42.058;25.586;2022-12-18T06:22:46;63473.28;;;11.20;100.00
7832;BME280;3961;42.058;25.586;2022-12-18T06:25:11;63475.59;;;11.22;100.00
7832;BME280;3961;42.058;25.586;2022-12-18T06:27:37;63491.53;;;11.33;100.00
7832;BME280;3961;42.058;25.586;2022-12-18T06:30:03;63492.69;;;11.34;100.00
7832;BME280;3961;42.058;25.586;2022-12-18T06:32:29;63489.56;;;11.29;100.00
7832;BME280;3961;42.058;25.586;2022-12-18T06:34:54;63473.28;;;11.20;100.00
7832;BME280;3961;42.058;25.586;2022-12-18T06:37:21;63472.13;;;11.19;100.00
7832;BME280;3961;42.058;25.586;2022-12-18T06:39:46;63481.59;;;11.29;100.00
7832;BME280;3961;42.058;25.586;2022-12-18T06:42:12;63483.69;;;11.29;100.00
7832;BME280;3961;42.058;25.586;2022-12-18T06:44:37;63477.66;;;11.21;100.00
7832;BME280;3961;42.058;25.586;2022-12-18T06:47:03;63481.59;;;11.29;100.00
7832;BME280;3961;42.058;25.586;2022-12-18T06:49:28;63485.19;;;11.28;100.00
7832;BME280;3961;42.058;25.586;2022-12-18T06:51:54;63477.91;;;11.24;100.00
7832;BME280;3961;42.058;25.586;2022-12-18T06:54:19;63480.78;;;11.26;100.00
7832;BME280;3961;42.058;25.586;2022-12-18T06:56:45;63483.09;;;11.28;100.00
7832;BME280;3961;42.058;25.586;2022-12-18T06:59:13;63485.06;;;11.32;100.00
7832;BME280;3961;42.058;25.586;2022-12-18T07:01:39;63477.91;;;11.24;100.00
7832;BME280;3961;42.058;25.586;2022-12-18T07:04:04;63465.75;;;11.13;100.00
7832;BME280;3961;42.058;25.586;2022-12-18T07:06:30;63486.69;;;11.27;100.00
7832;BME280;3961;42.058;25.586;2022-12-18T07:08:56;63485.06;;;11.32;100.00
7832;BME280;3961;42.058;25.586;2022-12-18T07:11:22;63502.63;;;11.38;100.00
7832;BME280;3961;42.058;25.586;2022-12-18T07:13:47;63499.84;;;11.43;100.00
7832;BME280;3961;42.058;25.586;2022-12-18T07:16:18;63491.78;;;11.36;100.00
7832;BME280;3961;42.058;25.586;2022-12-18T07:18:45;63490.63;;;11.35;100.00
7832;BME280;3961;42.058;25.586;2022-12-18T07:21:14;63514.66;;;11.54;100.00
7832;BME280;3961;42.058;25.586;2022-12-18T07:23:40;63500.44;;;11.43;100.00
7832;BME280;3961;42.058;25.586;2022-12-18T07:26:08;63503.22;;;11.51;100.00
7832;BME280;3961;42.058;25.586;2022-12-18T07:28:36;63510.84;;;11.53;100.00
7832;BME280;3961;42.058;25.586;2022-12-18T07:31:10;63505.06;;;11.48;100.00
7832;BME280;3961;42.058;25.586;2022-12-18T07:33:36;63475.00;;;11.21;100.00
7832;BME280;3961;42.058;25.586;2022-12-18T07:36:03;63489.69;;;11.36;100.00
7832;BME280;3961;42.058;25.586;2022-12-18T07:38:30;63492.69;;;11.34;100.00
7832;BME280;3961;42.058;25.586;2022-12-18T07:41:06;63490.28;;;11.37;100.00
7832;BME280;3961;42.058;25.586;2022-12-18T07:43:32;63493.50;;;11.37;100.00
7832;BME280;3961;42.058;25.586;2022-12-18T07:45:58;63498.34;;;11.44;100.00
7832;BME280;3961;42.058;25.586;2022-12-18T07:48:23;63508.53;;;11.51;100.00
7832;BME280;3961;42.058;25.586;2022-12-18T07:50:49;63520.44;;;11.59;100.00
7832;BME280;3961;42.058;25.586;2022-12-18T07:53:14;63524.50;;;11.62;100.00
7832;BME280;3961;42.058;25.586;2022-12-18T07:55:41;63527.38;;;11.65;100.00
7832;BME280;3961;42.058;25.586;2022-12-18T07:58:06;63537.19;;;11.73;100.00
7832;BME280;3961;42.058;25.586;2022-12-18T08:00:32;63530.84;;;11.68;100.00
7832;BME280;3961;42.058;25.586;2022-12-18T08:02:58;63534.31;;;11.71;100.00
7832;BME280;3961;42.058;25.586;2022-12-18T08:05:24;63524.72;;;11.65;100.00
7832;BME280;3961;42.058;25.586;2022-12-18T08:07:49;63530.28;;;11.67;100.00
7832;BME280;3961;42.058;25.586;2022-12-18T08:10:15;63527.03;;;11.67;100.00
7832;BME280;3961;42.058;25.586;2022-12-18T08:12:41;63518.38;;;11.59;100.00
7832;BME280;3961;42.058;25.586;2022-12-18T08:15:08;63525.88;;;11.66;100.00
7832;BME280;3961;42.058;25.586;2022-12-18T08:17:33;63529.94;;;11.69;100.00
7832;BME280;3961;42.058;25.586;2022-12-18T08:19:59;63533.16;;;11.70;100.00
7832;BME280;3961;42.058;25.586;2022-12-18T08:22:24;63531.06;;;11.70;100.00
7832;BME280;3961;42.058;25.586;2022-12-18T08:24:50;63527.97;;;11.65;100.00
7832;BME280;3961;42.058;25.586;2022-12-18T08:27:16;63525.88;;;11.66;100.00
7832;BME280;3961;42.058;25.586;2022-12-18T08:29:41;63528.78;;;11.68;100.00
7832;BME280;3961;42.058;25.586;2022-12-18T08:32:07;63523.22;;;11.66;100.00
7832;BME280;3961;42.058;25.586;2022-12-18T08:34:32;63528.53;;;11.66;100.00
7832;BME280;3961;42.058;25.586;2022-12-18T08:36:58;63527.97;;;11.65;100.00
7832;BME280;3961;42.058;25.586;2022-12-18T08:39:23;63528.78;;;11.68;100.00
7832;BME280;3961;42.058;25.586;2022-12-18T08:41:49;63538.03;;;11.76;100.00
7832;BME280;3961;42.058;25.586;2022-12-18T08:44:34;63536.84;;;11.75;100.00
7832;BME280;3961;42.058;25.586;2022-12-18T08:47:02;63521.03;;;11.59;100.00
7832;BME280;3961;42.058;25.586;2022-12-18T08:49:28;63510.25;;;11.52;100.00
7832;BME280;3961;42.058;25.586;2022-12-18T08:51:55;63524.72;;;11.65;100.00
7832;BME280;3961;42.058;25.586;2022-12-18T08:54:22;63513.16;;;11.55;100.00
7832;BME280;3961;42.058;25.586;2022-12-18T08:56:48;63525.53;;;11.68;100.00
7832;BME280;3961;42.058;25.586;2022-12-18T08:59:15;63538.03;;;11.76;100.00
7832;BME280;3961;42.058;25.586;2022-12-18T09:01:41;63541.84;;;11.77;100.00
7832;BME280;3961;42.058;25.586;2022-12-18T09:04:08;63542.75;;;11.76;100.00
7832;BME280;3961;42.058;25.586;2022-12-18T09:06:33;63532.00;;;11.69;100.00
7832;BME280;3961;42.058;25.586;2022-12-18T09:08:59;63534.53;;;11.73;100.00
7832;BME280;3961;42.058;25.586;2022-12-18T09:11:26;63501.81;;;11.47;100.00
7832;BME280;3961;42.058;25.586;2022-12-18T09:13:53;63518.69;;;11.57;100.00
7832;BME280;3961;42.058;25.586;2022-12-18T09:16:19;63513.63;;;11.60;100.00
7832;BME280;3961;42.058;25.586;2022-12-18T09:18:46;63532.59;;;11.69;100.00
7832;BME280;3961;42.058;25.586;2022-12-18T09:21:17;63523.34;;;11.61;100.00
7832;BME280;3961;42.058;25.586;2022-12-18T09:23:43;63522.31;;;11.67;100.00
7832;BME280;3961;42.058;25.586;2022-12-18T09:26:09;63520.44;;;11.59;100.00
7832;BME280;3961;42.058;25.586;2022-12-18T09:28:35;63513.16;;;11.55;100.00
7832;BME280;3961;42.058;25.586;2022-12-18T09:31:06;63508.75;;;11.53;100.00
7832;BME280;3961;42.058;25.586;2022-12-18T09:33:32;63505.97;;;11.46;100.00
7832;BME280;3961;42.058;25.586;2022-12-18T09:36:01;63527.38;;;11.65;100.00
7832;BME280;3961;42.058;25.586;2022-12-18T09:38:26;63520.69;;;11.61;100.00
7832;BME280;3961;42.058;25.586;2022-12-18T09:40:53;63529.34;;;11.69;100.00
7832;BME280;3961;42.058;25.586;2022-12-18T09:43:26;63505.88;;;11.51;100.00
7832;BME280;3961;42.058;25.586;2022-12-18T09:46:04;63486.69;;;11.27;100.00
7832;BME280;3961;42.058;25.586;2022-12-18T09:48:35;63525.31;;;11.65;100.00
7832;BME280;3961;42.058;25.586;2022-12-18T09:51:05;63509.69;;;11.52;100.00
7832;BME280;3961;42.058;25.586;2022-12-18T09:53:38;63496.03;;;11.42;100.00
7832;BME280;3961;42.058;25.586;2022-12-18T09:56:12;63520.44;;;11.59;100.00
7832;BME280;3961;42.058;25.586;2022-12-18T09:58:57;63513.50;;;11.53;100.00
7832;BME280;3961;42.058;25.586;2022-12-18T10:01:24;63478.13;;;11.26;100.00
7832;BME280;3961;42.058;25.586;2022-12-18T10:03:50;63490.38;;;11.32;100.00
7832;BME280;3961;42.058;25.586;2022-12-18T10:09:33;63501.00;;;11.44;100.00
7832;BME280;3961;42.058;25.586;2022-12-18T10:21:01;63493.16;;;11.39;100.00
7832;BME280;3961;42.058;25.586;2022-12-18T10:23:39;63510.84;;;11.53;100.00
7832;BME280;3961;42.058;25.586;2022-12-18T10:26:10;63512.00;;;11.54;100.00
7832;BME280;3961;42.058;25.586;2022-12-18T10:28:37;63507.72;;;11.48;100.00
7832;BME280;3961;42.058;25.586;2022-12-18T10:31:18;63516.03;;;11.57;100.00
7832;BME280;3961;42.058;25.586;2022-12-18T10:33:45;63500.09;;;11.45;100.00
7832;BME280;3961;42.058;25.586;2022-12-18T10:36:10;63521.84;;;11.62;100.00
7832;BME280;3961;42.058;25.586;2022-12-18T10:38:36;63464.38;;;11.09;100.00
7832;BME280;3961;42.058;25.586;2022-12-18T10:41:06;63495.81;;;11.39;100.00
7832;BME280;3961;42.058;25.586;2022-12-18T10:44:20;63498.94;;;11.44;100.00
7832;BME280;3961;42.058;25.586;2022-12-18T10:46:49;63484.25;;;11.29;100.00
7832;BME280;3961;42.058;25.586;2022-12-18T10:49:21;63464.38;;;11.09;100.00
7832;BME280;3961;42.058;25.586;2022-12-18T10:51:48;63462.06;;;11.07;100.00
7832;BME280;3961;42.058;25.586;2022-12-18T10:54:22;63463.44;;;11.11;100.00
7832;BME280;3961;42.058;25.586;2022-12-18T10:56:49;63452.81;;;10.99;100.00
7832;BME280;3961;42.058;25.586;2022-12-18T10:59:16;63469.81;;;11.17;100.00
7832;BME280;3961;42.058;25.586;2022-12-18T11:01:56;63471.88;;;11.16;100.00
7832;BME280;3961;42.058;25.586;2022-12-18T11:04:30;63466.91;;;11.14;100.00
7832;BME280;3961;42.058;25.586;2022-12-18T11:07:07;63479.88;;;11.28;100.00
7832;BME280;3961;42.058;25.586;2022-12-18T11:09:35;63450.97;;;11.02;100.00
7832;BME280;3961;42.058;25.586;2022-12-18T11:12:04;63458.03;;;11.04;100.00
7832;BME280;3961;42.058;25.586;2022-12-18T11:14:42;63416.88;;;10.72;100.00
7832;BME280;3961;42.058;25.586;2022-12-18T11:17:33;63385.47;;;10.42;100.00
7832;BME280;3961;42.058;25.586;2022-12-18T11:20:03;63352.53;;;10.14;100.00
7832;BME280;3961;42.058;25.586;2022-12-18T11:22:32;63343.78;;;10.10;100.00
7832;BME280;3961;42.058;25.586;2022-12-18T11:25:05;63358.91;;;10.19;100.00
7832;BME280;3961;42.058;25.586;2022-12-18T11:27:32;63343.09;;;10.03;100.00
7832;BME280;3961;42.058;25.586;2022-12-18T11:32:53;63372.19;;;10.31;100.00
7832;BME280;3961;42.058;25.586;2022-12-18T11:35:57;63352.66;;;10.09;100.00
7832;BME280;3961;42.058;25.586;2022-12-18T11:38:39;63338.13;;;10.01;100.00
7832;BME280;3961;42.058;25.586;2022-12-18T11:44:11;63339.28;;;10.02;100.00
7832;BME280;3961;42.058;25.586;2022-12-18T11:46:45;63353.69;;;10.15;100.00
7832;BME280;3961;42.058;25.586;2022-12-18T11:49:28;63371.38;;;10.28;100.00
7832;BME280;3961;42.058;25.586;2022-12-18T11:52:09;63372.19;;;10.31;100.00
7832;BME280;3961;42.058;25.586;2022-12-18T11:54:35;63363.31;;;10.21;100.00
7832;BME280;3961;42.058;25.586;2022-12-18T11:59:59;63362.97;;;10.23;100.00
7832;BME280;3961;42.058;25.586;2022-12-18T12:07:59;63327.97;;;9.94;100.00
7832;BME280;3961;42.058;25.586;2022-12-18T12:21:04;63297.75;;;9.65;100.00
7832;BME280;3961;42.058;25.586;2022-12-18T12:23:47;63265.09;;;9.39;100.00
7832;BME280;3961;42.058;25.586;2022-12-18T12:40:05;63288.50;;;9.57;100.00
7832;BME280;3961;42.058;25.586;2022-12-18T12:42:35;63278.44;;;9.46;100.00
7832;BME280;3961;42.058;25.586;2022-12-18T12:45:33;63256.44;;;9.31;100.00
7832;BME280;3961;42.058;25.586;2022-12-18T12:48:02;63275.22;;;9.46;100.00
7832;BME280;3961;42.058;25.586;2022-12-18T12:50:33;63272.91;;;9.43;100.00
7832;BME280;3961;42.058;25.586;2022-12-18T12:53:01;63276.38;;;9.47;100.00
7832;BME280;3961;42.058;25.586;2022-12-18T12:55:32;63259.66;;;9.32;100.00
7832;BME280;3961;42.058;25.586;2022-12-18T13:00:41;63260.81;;;9.33;100.00
7832;BME280;3961;42.058;25.586;2022-12-18T13:03:19;63236.03;;;9.11;100.00
7832;BME280;3961;42.058;25.586;2022-12-18T13:05:59;63227.97;;;9.04;100.00
7832;BME280;3961;42.058;25.586;2022-12-18T13:08:30;63238.31;;;9.13;100.00
7832;BME280;3961;42.058;25.586;2022-12-18T13:10:59;63237.50;;;9.10;100.00
7832;BME280;3961;42.058;25.586;2022-12-18T13:13:52;63233.50;;;9.06;100.00
7832;BME280;3961;42.058;25.586;2022-12-18T13:16:20;63218.50;;;8.93;100.00
7832;BME280;3961;42.058;25.586;2022-12-18T13:18:54;63236.97;;;9.09;100.00
7832;BME280;3961;42.058;25.586;2022-12-18T13:21:26;63230.28;;;9.06;100.00
7832;BME280;3961;42.058;25.586;2022-12-18T13:23:53;63235.69;;;9.13;100.00
7832;BME280;3961;42.058;25.586;2022-12-18T13:36:44;63205.22;;;8.82;100.00
7832;BME280;3961;42.058;25.586;2022-12-18T13:41:45;63195.91;;;8.78;100.00
7832;BME280;3961;42.058;25.586;2022-12-18T13:47:00;63207.19;;;8.86;100.00
7832;BME280;3961;42.058;25.586;2022-12-18T13:49:38;63205.13;;;8.86;100.00
7832;BME280;3961;42.058;25.586;2022-12-18T13:52:33;63211.81;;;8.90;100.00
7832;BME280;3961;42.058;25.586;2022-12-18T13:55:04;63201.34;;;8.85;100.00
7832;BME280;3961;42.058;25.586;2022-12-18T13:57:36;63206.88;;;8.88;100.00
7832;BME280;3961;42.058;25.586;2022-12-18T14:02:45;63198.34;;;8.75;100.00
7832;BME280;3961;42.058;25.586;2022-12-18T14:05:36;63212.41;;;8.90;100.00
7832;BME280;3961;42.058;25.586;2022-12-18T14:08:08;63229.69;;;9.05;100.00
7832;BME280;3961;42.058;25.586;2022-12-18T14:10:35;63226.81;;;9.03;100.00
7832;BME280;3961;42.058;25.586;2022-12-18T14:13:08;63210.31;;;8.91;100.00
7832;BME280;3961;42.058;25.586;2022-12-18T14:15:39;63216.66;;;8.96;100.00
7832;BME280;3961;42.058;25.586;2022-12-18T14:18:21;63215.75;;;8.98;100.00
7832;BME280;3961;42.058;25.586;2022-12-18T14:20:55;63214.47;;;8.90;100.00
7832;BME280;3961;42.058;25.586;2022-12-18T14:26:03;63223.69;;;8.98;100.00
7832;BME280;3961;42.058;25.586;2022-12-18T14:28:44;63205.13;;;8.86;100.00
7832;BME280;3961;42.058;25.586;2022-12-18T14:31:18;63193.97;;;8.74;100.00
7832;BME280;3961;42.058;25.586;2022-12-18T14:33:43;63200.84;;;8.80;100.00
7832;BME280;3961;42.058;25.586;2022-12-18T14:36:16;63189.59;;;8.72;100.00
7832;BME280;3961;42.058;25.586;2022-12-18T14:38:42;63184.75;;;8.66;100.00
7832;BME280;3961;42.058;25.586;2022-12-18T14:41:12;63201.19;;;8.78;100.00
7832;BME280;3961;42.058;25.586;2022-12-18T14:43:40;63196.84;;;8.77;100.00
7832;BME280;3961;42.058;25.586;2022-12-18T14:51:49;63167.44;;;8.51;100.00
7832;BME280;3961;42.058;25.586;2022-12-18T14:54:18;63147.78;;;8.38;100.00